sensor_id;sensor_type;location;lat;lon;timestamp;P1;durP1;ratioP1;P2;durP2;ratioP2
9675;SDS011;4876;42.656;23.292;2023-01-06T00:02:16;15.23;;;7.00;;
9675;SDS011;4876;42.656;23.292;2023-01-06T00:04:43;10.00;;;6.53;;
9675;SDS011;4876;42.656;23.292;2023-01-06T00:07:10;11.07;;;5.87;;
9675;SDS011;4876;42.656;23.292;2023-01-06T00:09:37;8.17;;;4.50;;
9675;SDS011;4876;42.656;23.292;2023-01-06T00:12:04;8.03;;;4.80;;
9675;SDS011;4876;42.656;23.292;2023-01-06T00:14:32;9.30;;;4.90;;
9675;SDS011;4876;42.656;23.292;2023-01-06T00:16:59;11.50;;;4.53;;
9675;SDS011;4876;42.656;23.292;2023-01-06T00:19:27;8.33;;;4.97;;
9675;SDS011;4876;42.656;23.292;2023-01-06T00:21:54;8.80;;;5.53;;
9675;SDS011;4876;42.656;23.292;2023-01-06T00:24:20;5.80;;;4.63;;
9675;SDS011;4876;42.656;23.292;2023-01-06T00:26:47;5.10;;;4.03;;
9675;SDS011;4876;42.656;23.292;2023-01-06T00:29:14;9.93;;;5.43;;
9675;SDS011;4876;42.656;23.292;2023-01-06T00:31:40;6.47;;;5.00;;
9675;SDS011;4876;42.656;23.292;2023-01-06T00:34:08;9.80;;;5.27;;
9675;SDS011;4876;42.656;23.292;2023-01-06T00:36:37;8.93;;;5.63;;
9675;SDS011;4876;42.656;23.292;2023-01-06T00:39:04;9.57;;;5.10;;
9675;SDS011;4876;42.656;23.292;2023-01-06T00:41:31;9.43;;;5.30;;
9675;SDS011;4876;42.656;23.292;2023-01-06T00:44:15;6.63;;;4.80;;
9675;SDS011;4876;42.656;23.292;2023-01-06T00:46:42;9.23;;;5.20;;
9675;SDS011;4876;42.656;23.292;2023-01-06T00:49:09;6.87;;;4.87;;
9675;SDS011;4876;42.656;23.292;2023-01-06T00:51:37;8.50;;;5.10;;
9675;SDS011;4876;42.656;23.292;2023-01-06T00:54:05;8.00;;;4.87;;
9675;SDS011;4876;42.656;23.292;2023-01-06T00:56:34;8.77;;;4.57;;
9675;SDS011;4876;42.656;23.292;2023-01-06T00:59:01;7.90;;;5.17;;
9675;SDS011;4876;42.656;23.292;2023-01-06T01:01:29;9.97;;;4.53;;
9675;SDS011;4876;42.656;23.292;2023-01-06T01:03:56;6.10;;;4.70;;
9675;SDS011;4876;42.656;23.292;2023-01-06T01:06:22;10.67;;;5.47;;
9675;SDS011;4876;42.656;23.292;2023-01-06T01:08:52;6.17;;;4.33;;
9675;SDS011;4876;42.656;23.292;2023-01-06T01:11:20;6.80;;;4.53;;
9675;SDS011;4876;42.656;23.292;2023-01-06T01:14:00;6.93;;;4.70;;
9675;SDS011;4876;42.656;23.292;2023-01-06T01:16:27;8.50;;;4.73;;
9675;SDS011;4876;42.656;23.292;2023-01-06T01:18:54;6.47;;;4.50;;
9675;SDS011;4876;42.656;23.292;2023-01-06T01:21:21;5.73;;;4.47;;
9675;SDS011;4876;42.656;23.292;2023-01-06T01:23:48;6.13;;;4.37;;
9675;SDS011;4876;42.656;23.292;2023-01-06T01:26:16;7.13;;;4.57;;
9675;SDS011;4876;42.656;23.292;2023-01-06T01:28:43;9.37;;;4.83;;
9675;SDS011;4876;42.656;23.292;2023-01-06T01:31:10;7.73;;;4.23;;
9675;SDS011;4876;42.656;23.292;2023-01-06T01:33:39;6.27;;;4.43;;
9675;SDS011;4876;42.656;23.292;2023-01-06T01:36:07;7.10;;;4.03;;
9675;SDS011;4876;42.656;23.292;2023-01-06T01:38:35;6.33;;;4.50;;
9675;SDS011;4876;42.656;23.292;2023-01-06T01:41:02;6.93;;;4.23;;
9675;SDS011;4876;42.656;23.292;2023-01-06T01:43:43;7.37;;;4.43;;
9675;SDS011;4876;42.656;23.292;2023-01-06T01:46:10;5.53;;;4.20;;
9675;SDS011;4876;42.656;23.292;2023-01-06T01:48:39;5.50;;;3.90;;
9675;SDS011;4876;42.656;23.292;2023-01-06T01:51:07;5.97;;;3.77;;
9675;SDS011;4876;42.656;23.292;2023-01-06T01:53:37;6.57;;;3.70;;
9675;SDS011;4876;42.656;23.292;2023-01-06T01:56:17;4.97;;;3.43;;
9675;SDS011;4876;42.656;23.292;2023-01-06T01:58:50;5.10;;;2.60;;
9675;SDS011;4876;42.656;23.292;2023-01-06T02:01:20;6.70;;;3.27;;
9675;SDS011;4876;42.656;23.292;2023-01-06T02:03:47;4.73;;;3.40;;
9675;SDS011;4876;42.656;23.292;2023-01-06T02:06:18;10.93;;;3.57;;
9675;SDS011;4876;42.656;23.292;2023-01-06T02:08:48;5.00;;;3.20;;
9675;SDS011;4876;42.656;23.292;2023-01-06T02:11:19;4.40;;;2.80;;
9675;SDS011;4876;42.656;23.292;2023-01-06T02:13:46;6.57;;;2.50;;
9675;SDS011;4876;42.656;23.292;2023-01-06T02:16:21;2.33;;;2.10;;
9675;SDS011;4876;42.656;23.292;2023-01-06T02:18:57;4.47;;;3.03;;
9675;SDS011;4876;42.656;23.292;2023-01-06T02:21:32;6.13;;;2.97;;
9675;SDS011;4876;42.656;23.292;2023-01-06T02:27:28;3.10;;;2.40;;
9675;SDS011;4876;42.656;23.292;2023-01-06T02:30:21;3.70;;;2.67;;
9675;SDS011;4876;42.656;23.292;2023-01-06T02:33:06;4.30;;;3.03;;
9675;SDS011;4876;42.656;23.292;2023-01-06T02:35:48;5.30;;;2.97;;
9675;SDS011;4876;42.656;23.292;2023-01-06T02:41:30;6.43;;;3.13;;
9675;SDS011;4876;42.656;23.292;2023-01-06T02:44:02;7.07;;;3.53;;
9675;SDS011;4876;42.656;23.292;2023-01-06T02:49:40;5.57;;;3.53;;
9675;SDS011;4876;42.656;23.292;2023-01-06T02:52:12;5.37;;;3.30;;
9675;SDS011;4876;42.656;23.292;2023-01-06T02:54:49;5.90;;;3.10;;
9675;SDS011;4876;42.656;23.292;2023-01-06T02:57:21;5.03;;;2.87;;
9675;SDS011;4876;42.656;23.292;2023-01-06T02:59:55;6.33;;;3.97;;
9675;SDS011;4876;42.656;23.292;2023-01-06T03:02:27;5.87;;;3.33;;
9675;SDS011;4876;42.656;23.292;2023-01-06T03:04:59;5.13;;;3.20;;
9675;SDS011;4876;42.656;23.292;2023-01-06T03:07:29;5.63;;;3.50;;
9675;SDS011;4876;42.656;23.292;2023-01-06T03:09:58;4.90;;;3.50;;
9675;SDS011;4876;42.656;23.292;2023-01-06T03:12:33;5.57;;;3.43;;
9675;SDS011;4876;42.656;23.292;2023-01-06T03:15:07;5.83;;;3.17;;
9675;SDS011;4876;42.656;23.292;2023-01-06T03:17:34;4.93;;;2.77;;
9675;SDS011;4876;42.656;23.292;2023-01-06T03:20:03;7.87;;;2.93;;
9675;SDS011;4876;42.656;23.292;2023-01-06T03:22:31;3.27;;;2.33;;
9675;SDS011;4876;42.656;23.292;2023-01-06T03:24:59;3.13;;;2.30;;
9675;SDS011;4876;42.656;23.292;2023-01-06T03:27:26;6.37;;;2.93;;
9675;SDS011;4876;42.656;23.292;2023-01-06T03:29:53;4.37;;;2.83;;
9675;SDS011;4876;42.656;23.292;2023-01-06T03:32:21;4.43;;;2.87;;
9675;SDS011;4876;42.656;23.292;2023-01-06T03:35:00;4.00;;;2.73;;
9675;SDS011;4876;42.656;23.292;2023-01-06T03:37:36;4.67;;;3.00;;
9675;SDS011;4876;42.656;23.292;2023-01-06T03:40:15;4.00;;;2.60;;
9675;SDS011;4876;42.656;23.292;2023-01-06T03:42:54;3.93;;;2.60;;
9675;SDS011;4876;42.656;23.292;2023-01-06T03:45:54;7.87;;;3.23;;
9675;SDS011;4876;42.656;23.292;2023-01-06T03:48:29;5.67;;;2.77;;
9675;SDS011;4876;42.656;23.292;2023-01-06T03:51:04;4.23;;;2.77;;
9675;SDS011;4876;42.656;23.292;2023-01-06T03:53:35;6.03;;;2.80;;
9675;SDS011;4876;42.656;23.292;2023-01-06T03:56:09;4.03;;;2.63;;
9675;SDS011;4876;42.656;23.292;2023-01-06T03:58:42;5.07;;;3.10;;
9675;SDS011;4876;42.656;23.292;2023-01-06T04:01:11;9.00;;;2.47;;
9675;SDS011;4876;42.656;23.292;2023-01-06T04:03:42;3.67;;;2.70;;
9675;SDS011;4876;42.656;23.292;2023-01-06T04:06:11;9.40;;;3.07;;
9675;SDS011;4876;42.656;23.292;2023-01-06T04:08:38;5.70;;;2.97;;
9675;SDS011;4876;42.656;23.292;2023-01-06T04:11:05;5.30;;;3.10;;
9675;SDS011;4876;42.656;23.292;2023-01-06T04:13:32;4.40;;;2.77;;
9675;SDS011;4876;42.656;23.292;2023-01-06T04:15:57;4.73;;;3.23;;
9675;SDS011;4876;42.656;23.292;2023-01-06T04:18:24;4.10;;;3.23;;
9675;SDS011;4876;42.656;23.292;2023-01-06T04:20:51;5.20;;;3.20;;
9675;SDS011;4876;42.656;23.292;2023-01-06T04:23:19;6.07;;;3.13;;
9675;SDS011;4876;42.656;23.292;2023-01-06T04:25:46;4.23;;;2.80;;
9675;SDS011;4876;42.656;23.292;2023-01-06T04:28:13;6.50;;;2.93;;
9675;SDS011;4876;42.656;23.292;2023-01-06T04:30:39;6.63;;;2.83;;
9675;SDS011;4876;42.656;23.292;2023-01-06T04:33:06;5.90;;;2.20;;
9675;SDS011;4876;42.656;23.292;2023-01-06T04:35:33;5.40;;;2.73;;
9675;SDS011;4876;42.656;23.292;2023-01-06T04:38:00;4.17;;;2.93;;
9675;SDS011;4876;42.656;23.292;2023-01-06T04:40:28;4.73;;;2.87;;
9675;SDS011;4876;42.656;23.292;2023-01-06T04:42:55;4.70;;;2.67;;
9675;SDS011;4876;42.656;23.292;2023-01-06T04:45:31;3.73;;;2.47;;
9675;SDS011;4876;42.656;23.292;2023-01-06T04:47:59;3.70;;;2.53;;
9675;SDS011;4876;42.656;23.292;2023-01-06T04:50:26;6.10;;;2.37;;
9675;SDS011;4876;42.656;23.292;2023-01-06T04:52:52;8.50;;;2.60;;
9675;SDS011;4876;42.656;23.292;2023-01-06T04:55:19;5.47;;;2.70;;
9675;SDS011;4876;42.656;23.292;2023-01-06T04:57:48;2.97;;;2.40;;
9675;SDS011;4876;42.656;23.292;2023-01-06T05:00:15;3.27;;;2.37;;
9675;SDS011;4876;42.656;23.292;2023-01-06T05:02:42;3.50;;;2.43;;
9675;SDS011;4876;42.656;23.292;2023-01-06T05:05:09;5.23;;;2.53;;
9675;SDS011;4876;42.656;23.292;2023-01-06T05:07:36;3.30;;;2.67;;
9675;SDS011;4876;42.656;23.292;2023-01-06T05:10:04;2.80;;;2.40;;
9675;SDS011;4876;42.656;23.292;2023-01-06T05:12:32;8.83;;;2.60;;
9675;SDS011;4876;42.656;23.292;2023-01-06T05:15:00;9.67;;;2.63;;
9675;SDS011;4876;42.656;23.292;2023-01-06T05:17:28;4.03;;;2.50;;
9675;SDS011;4876;42.656;23.292;2023-01-06T05:19:55;3.67;;;2.50;;
9675;SDS011;4876;42.656;23.292;2023-01-06T05:22:21;5.77;;;2.13;;
9675;SDS011;4876;42.656;23.292;2023-01-06T05:24:48;5.47;;;2.60;;
9675;SDS011;4876;42.656;23.292;2023-01-06T05:27:15;6.67;;;2.53;;
9675;SDS011;4876;42.656;23.292;2023-01-06T05:29:42;6.70;;;2.93;;
9675;SDS011;4876;42.656;23.292;2023-01-06T05:32:10;3.20;;;2.00;;
9675;SDS011;4876;42.656;23.292;2023-01-06T05:34:37;7.23;;;2.90;;
9675;SDS011;4876;42.656;23.292;2023-01-06T05:37:04;5.90;;;2.70;;
9675;SDS011;4876;42.656;23.292;2023-01-06T05:39:31;3.73;;;2.30;;
9675;SDS011;4876;42.656;23.292;2023-01-06T05:41:57;5.03;;;2.13;;
9675;SDS011;4876;42.656;23.292;2023-01-06T05:44:24;8.50;;;2.80;;
9675;SDS011;4876;42.656;23.292;2023-01-06T05:46:51;5.87;;;2.40;;
9675;SDS011;4876;42.656;23.292;2023-01-06T05:49:19;3.67;;;2.30;;
9675;SDS011;4876;42.656;23.292;2023-01-06T05:51:46;6.13;;;2.83;;
9675;SDS011;4876;42.656;23.292;2023-01-06T05:54:13;8.53;;;2.30;;
9675;SDS011;4876;42.656;23.292;2023-01-06T05:56:40;4.90;;;2.60;;
9675;SDS011;4876;42.656;23.292;2023-01-06T05:59:07;7.63;;;2.73;;
9675;SDS011;4876;42.656;23.292;2023-01-06T06:01:34;4.47;;;2.33;;
9675;SDS011;4876;42.656;23.292;2023-01-06T06:04:01;4.03;;;2.30;;
9675;SDS011;4876;42.656;23.292;2023-01-06T06:06:29;3.20;;;2.37;;
9675;SDS011;4876;42.656;23.292;2023-01-06T06:08:56;3.20;;;2.10;;
9675;SDS011;4876;42.656;23.292;2023-01-06T06:11:23;3.13;;;1.87;;
9675;SDS011;4876;42.656;23.292;2023-01-06T06:13:51;9.67;;;3.53;;
9675;SDS011;4876;42.656;23.292;2023-01-06T06:16:20;9.60;;;2.50;;
9675;SDS011;4876;42.656;23.292;2023-01-06T06:18:48;4.90;;;2.60;;
9675;SDS011;4876;42.656;23.292;2023-01-06T06:21:17;7.93;;;2.73;;
9675;SDS011;4876;42.656;23.292;2023-01-06T06:23:47;3.00;;;2.20;;
9675;SDS011;4876;42.656;23.292;2023-01-06T06:26:15;8.33;;;2.23;;
9675;SDS011;4876;42.656;23.292;2023-01-06T06:28:44;6.23;;;1.87;;
9675;SDS011;4876;42.656;23.292;2023-01-06T06:31:11;8.67;;;2.70;;
9675;SDS011;4876;42.656;23.292;2023-01-06T06:33:39;5.57;;;2.70;;
9675;SDS011;4876;42.656;23.292;2023-01-06T06:36:06;3.47;;;2.33;;
9675;SDS011;4876;42.656;23.292;2023-01-06T06:38:36;5.47;;;2.47;;
9675;SDS011;4876;42.656;23.292;2023-01-06T06:41:04;4.20;;;2.30;;
9675;SDS011;4876;42.656;23.292;2023-01-06T06:43:31;4.97;;;2.20;;
9675;SDS011;4876;42.656;23.292;2023-01-06T06:45:58;5.93;;;2.30;;
9675;SDS011;4876;42.656;23.292;2023-01-06T06:48:26;8.77;;;2.50;;
9675;SDS011;4876;42.656;23.292;2023-01-06T06:50:56;5.63;;;1.90;;
9675;SDS011;4876;42.656;23.292;2023-01-06T06:53:24;2.93;;;1.83;;
9675;SDS011;4876;42.656;23.292;2023-01-06T06:55:51;3.40;;;2.17;;
9675;SDS011;4876;42.656;23.292;2023-01-06T06:58:19;3.20;;;1.90;;
9675;SDS011;4876;42.656;23.292;2023-01-06T07:00:46;3.30;;;1.90;;
9675;SDS011;4876;42.656;23.292;2023-01-06T07:03:13;4.37;;;2.00;;
9675;SDS011;4876;42.656;23.292;2023-01-06T07:05:40;4.90;;;2.00;;
9675;SDS011;4876;42.656;23.292;2023-01-06T07:08:07;5.37;;;2.37;;
9675;SDS011;4876;42.656;23.292;2023-01-06T07:10:34;2.93;;;1.83;;
9675;SDS011;4876;42.656;23.292;2023-01-06T07:13:01;2.37;;;1.80;;
9675;SDS011;4876;42.656;23.292;2023-01-06T07:15:29;4.60;;;2.00;;
9675;SDS011;4876;42.656;23.292;2023-01-06T07:17:58;2.70;;;1.77;;
9675;SDS011;4876;42.656;23.292;2023-01-06T07:20:25;3.33;;;2.00;;
9675;SDS011;4876;42.656;23.292;2023-01-06T07:22:52;10.17;;;2.33;;
9675;SDS011;4876;42.656;23.292;2023-01-06T07:25:19;3.53;;;2.33;;
9675;SDS011;4876;42.656;23.292;2023-01-06T07:27:46;3.57;;;2.10;;
9675;SDS011;4876;42.656;23.292;2023-01-06T07:30:17;2.00;;;1.73;;
9675;SDS011;4876;42.656;23.292;2023-01-06T07:32:46;3.00;;;1.87;;
9675;SDS011;4876;42.656;23.292;2023-01-06T07:35:12;3.90;;;2.00;;
9675;SDS011;4876;42.656;23.292;2023-01-06T07:37:39;2.97;;;2.17;;
9675;SDS011;4876;42.656;23.292;2023-01-06T07:40:06;5.37;;;2.43;;
9675;SDS011;4876;42.656;23.292;2023-01-06T07:42:34;2.90;;;1.90;;
9675;SDS011;4876;42.656;23.292;2023-01-06T07:45:01;5.10;;;2.30;;
9675;SDS011;4876;42.656;23.292;2023-01-06T07:47:28;3.83;;;2.07;;
9675;SDS011;4876;42.656;23.292;2023-01-06T07:49:57;4.00;;;1.67;;
9675;SDS011;4876;42.656;23.292;2023-01-06T07:52:23;3.50;;;2.33;;
9675;SDS011;4876;42.656;23.292;2023-01-06T07:54:50;4.47;;;2.00;;
9675;SDS011;4876;42.656;23.292;2023-01-06T07:57:17;5.73;;;2.27;;
9675;SDS011;4876;42.656;23.292;2023-01-06T07:59:44;11.83;;;2.90;;
9675;SDS011;4876;42.656;23.292;2023-01-06T08:02:11;4.53;;;2.20;;
9675;SDS011;4876;42.656;23.292;2023-01-06T08:04:37;3.60;;;1.90;;
9675;SDS011;4876;42.656;23.292;2023-01-06T08:07:07;6.87;;;1.93;;
9675;SDS011;4876;42.656;23.292;2023-01-06T08:09:33;5.80;;;2.40;;
9675;SDS011;4876;42.656;23.292;2023-01-06T08:12:01;2.10;;;1.63;;
9675;SDS011;4876;42.656;23.292;2023-01-06T08:14:28;2.40;;;1.80;;
9675;SDS011;4876;42.656;23.292;2023-01-06T08:16:55;6.63;;;2.37;;
9675;SDS011;4876;42.656;23.292;2023-01-06T08:19:22;4.13;;;2.53;;
9675;SDS011;4876;42.656;23.292;2023-01-06T08:21:49;3.83;;;1.97;;
9675;SDS011;4876;42.656;23.292;2023-01-06T08:24:17;3.77;;;1.80;;
9675;SDS011;4876;42.656;23.292;2023-01-06T08:26:44;2.10;;;1.77;;
9675;SDS011;4876;42.656;23.292;2023-01-06T08:29:11;2.77;;;1.80;;
9675;SDS011;4876;42.656;23.292;2023-01-06T08:31:37;3.57;;;2.00;;
9675;SDS011;4876;42.656;23.292;2023-01-06T08:34:04;2.83;;;2.00;;
9675;SDS011;4876;42.656;23.292;2023-01-06T08:36:31;3.87;;;2.47;;
9675;SDS011;4876;42.656;23.292;2023-01-06T08:38:58;4.47;;;1.80;;
9675;SDS011;4876;42.656;23.292;2023-01-06T08:41:26;5.67;;;1.80;;
9675;SDS011;4876;42.656;23.292;2023-01-06T08:43:53;3.00;;;1.73;;
9675;SDS011;4876;42.656;23.292;2023-01-06T08:46:20;2.37;;;1.63;;
9675;SDS011;4876;42.656;23.292;2023-01-06T08:48:47;3.77;;;1.63;;
9675;SDS011;4876;42.656;23.292;2023-01-06T08:51:15;2.53;;;1.50;;
9675;SDS011;4876;42.656;23.292;2023-01-06T08:53:43;4.60;;;1.60;;
9675;SDS011;4876;42.656;23.292;2023-01-06T08:56:11;1.83;;;1.40;;
9675;SDS011;4876;42.656;23.292;2023-01-06T08:58:40;1.70;;;1.30;;
9675;SDS011;4876;42.656;23.292;2023-01-06T09:01:13;6.43;;;1.93;;
9675;SDS011;4876;42.656;23.292;2023-01-06T09:03:41;6.00;;;2.03;;
9675;SDS011;4876;42.656;23.292;2023-01-06T09:06:07;2.97;;;1.73;;
9675;SDS011;4876;42.656;23.292;2023-01-06T09:08:34;7.03;;;2.00;;
9675;SDS011;4876;42.656;23.292;2023-01-06T09:11:03;3.77;;;1.57;;
9675;SDS011;4876;42.656;23.292;2023-01-06T09:13:31;3.43;;;1.80;;
9675;SDS011;4876;42.656;23.292;2023-01-06T09:15:59;5.40;;;1.70;;
9675;SDS011;4876;42.656;23.292;2023-01-06T09:18:27;2.43;;;1.60;;
9675;SDS011;4876;42.656;23.292;2023-01-06T09:20:54;7.70;;;1.93;;
9675;SDS011;4876;42.656;23.292;2023-01-06T09:23:20;2.83;;;1.77;;
9675;SDS011;4876;42.656;23.292;2023-01-06T09:25:47;8.13;;;2.23;;
9675;SDS011;4876;42.656;23.292;2023-01-06T09:28:14;3.83;;;2.13;;
9675;SDS011;4876;42.656;23.292;2023-01-06T09:30:41;3.27;;;1.93;;
9675;SDS011;4876;42.656;23.292;2023-01-06T09:33:11;2.93;;;1.93;;
9675;SDS011;4876;42.656;23.292;2023-01-06T09:35:38;4.00;;;1.80;;
9675;SDS011;4876;42.656;23.292;2023-01-06T09:38:05;2.20;;;1.23;;
9675;SDS011;4876;42.656;23.292;2023-01-06T09:40:34;4.20;;;1.77;;
9675;SDS011;4876;42.656;23.292;2023-01-06T09:43:15;2.07;;;1.13;;
9675;SDS011;4876;42.656;23.292;2023-01-06T09:45:51;5.10;;;1.90;;
9675;SDS011;4876;42.656;23.292;2023-01-06T09:48:22;2.77;;;1.70;;
9675;SDS011;4876;42.656;23.292;2023-01-06T09:50:53;4.03;;;2.10;;
9675;SDS011;4876;42.656;23.292;2023-01-06T09:53:25;2.90;;;1.70;;
9675;SDS011;4876;42.656;23.292;2023-01-06T09:55:57;1.90;;;1.30;;
9675;SDS011;4876;42.656;23.292;2023-01-06T09:58:27;2.63;;;1.30;;
9675;SDS011;4876;42.656;23.292;2023-01-06T10:00:59;1.97;;;1.43;;
9675;SDS011;4876;42.656;23.292;2023-01-06T10:03:32;2.77;;;1.57;;
9675;SDS011;4876;42.656;23.292;2023-01-06T10:06:02;2.90;;;1.40;;
9675;SDS011;4876;42.656;23.292;2023-01-06T10:08:44;3.77;;;1.10;;
9675;SDS011;4876;42.656;23.292;2023-01-06T10:11:18;4.50;;;1.40;;
9675;SDS011;4876;42.656;23.292;2023-01-06T10:13:54;1.27;;;1.10;;
9675;SDS011;4876;42.656;23.292;2023-01-06T10:16:32;2.97;;;1.20;;
9675;SDS011;4876;42.656;23.292;2023-01-06T10:19:08;4.83;;;1.10;;
9675;SDS011;4876;42.656;23.292;2023-01-06T10:21:45;2.10;;;1.20;;
9675;SDS011;4876;42.656;23.292;2023-01-06T10:24:24;1.97;;;0.90;;
9675;SDS011;4876;42.656;23.292;2023-01-06T10:26:57;2.93;;;1.43;;
9675;SDS011;4876;42.656;23.292;2023-01-06T10:29:28;3.53;;;1.00;;
9675;SDS011;4876;42.656;23.292;2023-01-06T10:31:59;2.00;;;1.30;;
9675;SDS011;4876;42.656;23.292;2023-01-06T10:34:31;2.90;;;1.33;;
9675;SDS011;4876;42.656;23.292;2023-01-06T10:37:00;2.07;;;1.50;;
9675;SDS011;4876;42.656;23.292;2023-01-06T10:39:32;1.70;;;1.30;;
9675;SDS011;4876;42.656;23.292;2023-01-06T10:42:04;4.13;;;1.80;;
9675;SDS011;4876;42.656;23.292;2023-01-06T10:44:59;4.23;;;1.50;;
9675;SDS011;4876;42.656;23.292;2023-01-06T10:47:26;3.20;;;1.73;;
9675;SDS011;4876;42.656;23.292;2023-01-06T10:49:57;5.77;;;1.90;;
9675;SDS011;4876;42.656;23.292;2023-01-06T10:52:24;2.67;;;1.50;;
9675;SDS011;4876;42.656;23.292;2023-01-06T10:54:54;2.07;;;1.40;;
9675;SDS011;4876;42.656;23.292;2023-01-06T10:57:25;4.80;;;1.80;;
9675;SDS011;4876;42.656;23.292;2023-01-06T11:00:09;5.20;;;1.53;;
9675;SDS011;4876;42.656;23.292;2023-01-06T11:02:41;10.20;;;1.97;;
9675;SDS011;4876;42.656;23.292;2023-01-06T11:05:15;5.17;;;1.97;;
9675;SDS011;4876;42.656;23.292;2023-01-06T11:07:47;6.33;;;2.17;;
9675;SDS011;4876;42.656;23.292;2023-01-06T11:10:25;3.90;;;1.70;;
9675;SDS011;4876;42.656;23.292;2023-01-06T11:12:54;11.30;;;2.20;;
9675;SDS011;4876;42.656;23.292;2023-01-06T11:15:24;4.83;;;1.73;;
9675;SDS011;4876;42.656;23.292;2023-01-06T11:17:59;3.87;;;1.70;;
9675;SDS011;4876;42.656;23.292;2023-01-06T11:20:29;3.57;;;1.90;;
9675;SDS011;4876;42.656;23.292;2023-01-06T11:23:18;5.23;;;1.80;;
9675;SDS011;4876;42.656;23.292;2023-01-06T11:28:38;3.67;;;1.60;;
9675;SDS011;4876;42.656;23.292;2023-01-06T11:31:06;2.53;;;1.43;;
9675;SDS011;4876;42.656;23.292;2023-01-06T11:33:36;3.57;;;1.47;;
9675;SDS011;4876;42.656;23.292;2023-01-06T11:36:14;3.53;;;2.03;;
9675;SDS011;4876;42.656;23.292;2023-01-06T11:38:43;2.20;;;1.63;;
9675;SDS011;4876;42.656;23.292;2023-01-06T11:41:12;1.77;;;1.20;;
9675;SDS011;4876;42.656;23.292;2023-01-06T11:43:48;3.17;;;1.40;;
9675;SDS011;4876;42.656;23.292;2023-01-06T11:46:17;4.60;;;2.00;;
9675;SDS011;4876;42.656;23.292;2023-01-06T11:48:48;3.27;;;1.60;;
9675;SDS011;4876;42.656;23.292;2023-01-06T11:51:30;4.07;;;1.60;;
9675;SDS011;4876;42.656;23.292;2023-01-06T11:54:19;2.93;;;1.60;;
9675;SDS011;4876;42.656;23.292;2023-01-06T11:56:59;3.50;;;1.87;;
9675;SDS011;4876;42.656;23.292;2023-01-06T11:59:30;2.93;;;1.30;;
9675;SDS011;4876;42.656;23.292;2023-01-06T12:02:10;3.47;;;1.77;;
9675;SDS011;4876;42.656;23.292;2023-01-06T12:04:44;2.47;;;1.73;;
9675;SDS011;4876;42.656;23.292;2023-01-06T12:07:17;8.60;;;2.27;;
9675;SDS011;4876;42.656;23.292;2023-01-06T12:09:50;2.00;;;1.60;;
9675;SDS011;4876;42.656;23.292;2023-01-06T12:12:19;2.00;;;1.50;;
9675;SDS011;4876;42.656;23.292;2023-01-06T12:14:48;7.53;;;1.90;;
9675;SDS011;4876;42.656;23.292;2023-01-06T12:17:16;5.60;;;1.70;;
9675;SDS011;4876;42.656;23.292;2023-01-06T12:19:56;1.93;;;1.53;;
9675;SDS011;4876;42.656;23.292;2023-01-06T12:22:28;4.37;;;1.73;;
9675;SDS011;4876;42.656;23.292;2023-01-06T12:24:59;3.20;;;1.80;;
9675;SDS011;4876;42.656;23.292;2023-01-06T12:27:29;2.97;;;1.30;;
9675;SDS011;4876;42.656;23.292;2023-01-06T12:30:01;2.67;;;1.70;;
9675;SDS011;4876;42.656;23.292;2023-01-06T12:32:35;3.63;;;1.90;;
9675;SDS011;4876;42.656;23.292;2023-01-06T12:35:07;3.53;;;1.80;;
9675;SDS011;4876;42.656;23.292;2023-01-06T12:37:44;3.57;;;1.90;;
9675;SDS011;4876;42.656;23.292;2023-01-06T12:40:14;2.77;;;1.53;;
9675;SDS011;4876;42.656;23.292;2023-01-06T12:42:48;2.70;;;1.90;;
9675;SDS011;4876;42.656;23.292;2023-01-06T12:45:23;2.20;;;1.53;;
9675;SDS011;4876;42.656;23.292;2023-01-06T12:47:58;6.20;;;1.87;;
9675;SDS011;4876;42.656;23.292;2023-01-06T12:50:33;2.60;;;1.60;;
9675;SDS011;4876;42.656;23.292;2023-01-06T12:53:07;2.40;;;1.63;;
9675;SDS011;4876;42.656;23.292;2023-01-06T12:55:39;7.07;;;1.83;;
9675;SDS011;4876;42.656;23.292;2023-01-06T12:58:13;3.20;;;2.00;;
9675;SDS011;4876;42.656;23.292;2023-01-06T13:00:48;3.17;;;2.20;;
9675;SDS011;4876;42.656;23.292;2023-01-06T13:03:23;3.03;;;1.90;;
9675;SDS011;4876;42.656;23.292;2023-01-06T13:06:03;3.07;;;2.00;;
9675;SDS011;4876;42.656;23.292;2023-01-06T13:08:45;4.57;;;1.70;;
9675;SDS011;4876;42.656;23.292;2023-01-06T13:11:26;3.97;;;1.70;;
9675;SDS011;4876;42.656;23.292;2023-01-06T13:14:01;3.80;;;2.17;;
9675;SDS011;4876;42.656;23.292;2023-01-06T13:16:38;5.83;;;1.87;;
9675;SDS011;4876;42.656;23.292;2023-01-06T13:19:13;1.97;;;1.63;;
9675;SDS011;4876;42.656;23.292;2023-01-06T13:21:45;4.43;;;2.10;;
9675;SDS011;4876;42.656;23.292;2023-01-06T13:24:23;4.57;;;1.87;;
9675;SDS011;4876;42.656;23.292;2023-01-06T13:29:58;3.63;;;1.90;;
9675;SDS011;4876;42.656;23.292;2023-01-06T13:32:41;4.30;;;1.97;;
9675;SDS011;4876;42.656;23.292;2023-01-06T13:35:28;2.57;;;1.97;;
9675;SDS011;4876;42.656;23.292;2023-01-06T13:38:24;3.03;;;1.80;;
9675;SDS011;4876;42.656;23.292;2023-01-06T13:41:06;3.20;;;2.20;;
9675;SDS011;4876;42.656;23.292;2023-01-06T13:43:40;3.10;;;1.83;;
9675;SDS011;4876;42.656;23.292;2023-01-06T13:46:10;3.57;;;1.93;;
9675;SDS011;4876;42.656;23.292;2023-01-06T13:48:42;4.00;;;2.27;;
9675;SDS011;4876;42.656;23.292;2023-01-06T13:51:11;7.23;;;2.30;;
9675;SDS011;4876;42.656;23.292;2023-01-06T13:53:41;3.87;;;2.23;;
9675;SDS011;4876;42.656;23.292;2023-01-06T13:56:27;2.10;;;1.77;;
9675;SDS011;4876;42.656;23.292;2023-01-06T14:01:45;5.40;;;1.90;;
9675;SDS011;4876;42.656;23.292;2023-01-06T14:07:13;5.87;;;2.37;;
9675;SDS011;4876;42.656;23.292;2023-01-06T14:09:47;3.17;;;2.20;;
9675;SDS011;4876;42.656;23.292;2023-01-06T14:12:17;4.33;;;2.40;;
9675;SDS011;4876;42.656;23.292;2023-01-06T14:14:58;5.43;;;2.30;;
9675;SDS011;4876;42.656;23.292;2023-01-06T14:17:29;3.87;;;2.20;;
9675;SDS011;4876;42.656;23.292;2023-01-06T14:20:02;5.80;;;2.47;;
9675;SDS011;4876;42.656;23.292;2023-01-06T14:22:29;5.30;;;2.60;;
9675;SDS011;4876;42.656;23.292;2023-01-06T14:24:58;2.90;;;2.23;;
9675;SDS011;4876;42.656;23.292;2023-01-06T14:30:39;4.67;;;2.20;;
9675;SDS011;4876;42.656;23.292;2023-01-06T14:33:22;6.03;;;2.40;;
9675;SDS011;4876;42.656;23.292;2023-01-06T14:36:01;3.27;;;2.33;;
9675;SDS011;4876;42.656;23.292;2023-01-06T14:38:33;3.73;;;2.60;;
9675;SDS011;4876;42.656;23.292;2023-01-06T14:41:12;4.67;;;2.70;;
9675;SDS011;4876;42.656;23.292;2023-01-06T14:43:46;4.40;;;2.17;;
9675;SDS011;4876;42.656;23.292;2023-01-06T14:46:20;2.53;;;2.20;;
9675;SDS011;4876;42.656;23.292;2023-01-06T14:48:52;5.57;;;2.33;;
9675;SDS011;4876;42.656;23.292;2023-01-06T14:51:23;6.50;;;2.97;;
9675;SDS011;4876;42.656;23.292;2023-01-06T14:53:55;5.07;;;2.43;;
9675;SDS011;4876;42.656;23.292;2023-01-06T14:56:28;7.80;;;2.20;;
9675;SDS011;4876;42.656;23.292;2023-01-06T14:59:08;5.30;;;2.20;;
9675;SDS011;4876;42.656;23.292;2023-01-06T15:01:39;2.50;;;1.93;;
9675;SDS011;4876;42.656;23.292;2023-01-06T15:04:18;4.67;;;2.57;;
9675;SDS011;4876;42.656;23.292;2023-01-06T15:06:54;3.80;;;2.20;;
9675;SDS011;4876;42.656;23.292;2023-01-06T15:09:22;3.70;;;2.43;;
9675;SDS011;4876;42.656;23.292;2023-01-06T15:11:48;3.37;;;2.50;;
9675;SDS011;4876;42.656;23.292;2023-01-06T15:14:25;6.30;;;2.70;;
9675;SDS011;4876;42.656;23.292;2023-01-06T15:16:55;3.30;;;2.30;;
9675;SDS011;4876;42.656;23.292;2023-01-06T15:19:25;3.83;;;2.47;;
9675;SDS011;4876;42.656;23.292;2023-01-06T15:21:52;6.77;;;2.90;;
9675;SDS011;4876;42.656;23.292;2023-01-06T15:24:20;6.70;;;3.50;;
9675;SDS011;4876;42.656;23.292;2023-01-06T15:26:49;10.57;;;3.77;;
9675;SDS011;4876;42.656;23.292;2023-01-06T15:29:18;6.00;;;3.33;;
9675;SDS011;4876;42.656;23.292;2023-01-06T15:31:47;6.53;;;3.33;;
9675;SDS011;4876;42.656;23.292;2023-01-06T15:34:17;6.83;;;3.57;;
9675;SDS011;4876;42.656;23.292;2023-01-06T15:36:46;6.30;;;3.50;;
9675;SDS011;4876;42.656;23.292;2023-01-06T15:39:17;4.80;;;2.70;;
9675;SDS011;4876;42.656;23.292;2023-01-06T15:41:50;4.90;;;2.97;;
9675;SDS011;4876;42.656;23.292;2023-01-06T15:44:21;5.07;;;3.10;;
9675;SDS011;4876;42.656;23.292;2023-01-06T15:46:52;5.50;;;3.27;;